Time;durP1;ratioP1;P1;durP2;ratioP2;P2;SDS_P1;SDS_P2;PMS_P1;PMS_P2;Temp;Humidity;BMP_temperature;BMP_pressure;BME280_temperature;BME280_humidity;BME280_pressure;Samples;Min_cycle;Max_cycle;Signal;HPM_P1;HPM_P2
2023/03/12 00:02:00;;;;;;;2.47;1.45;;;15.40;1.00;;;;;;5073361;28;20040;-39
2023/03/12 00:04:27;;;;;;;4.03;1.85;;;15.30;1.00;;;;;;5072824;28;20112;-39
2023/03/12 00:06:54;;;;;;;2.42;1.70;;;15.30;1.00;;;;;;5073355;28;20132;-39
2023/03/12 00:09:20;;;;;;;2.92;1.52;;;15.30;1.00;;;;;;5073419;28;20040;-39
2023/03/12 00:11:47;;;;;;;2.50;1.60;;;15.30;1.00;;;;;;5073321;28;20068;-39
2023/03/12 00:14:14;;;;;;;3.50;1.50;;;15.30;1.00;;;;;;5072518;28;20048;-39
2023/03/12 00:16:41;;;;;;;4.18;1.95;;;15.20;1.00;;;;;;5073121;28;20044;-39
2023/03/12 00:19:10;;;;;;;2.78;1.58;;;15.20;1.00;;;;;;5073118;28;20484;-39
2023/03/12 00:21:38;;;;;;;6.22;2.00;;;15.20;1.00;;;;;;5073159;28;20041;-39
2023/03/12 00:24:06;;;;;;;3.40;1.75;;;15.20;1.00;;;;;;5072355;28;20037;-39
2023/03/12 00:26:33;;;;;;;3.50;1.77;;;15.10;1.00;;;;;;5073030;28;20059;-39
2023/03/12 00:29:00;;;;;;;3.60;1.60;;;15.10;1.00;;;;;;5072916;28;20036;-39
2023/03/12 00:31:31;;;;;;;5.05;2.03;;;15.10;1.00;;;;;;5072834;28;20048;-39
2023/03/12 00:33:59;;;;;;;2.78;1.65;;;15.10;1.00;;;;;;5072213;28;20052;-39
2023/03/12 00:36:29;;;;;;;2.10;1.30;;;15.00;1.00;;;;;;5072629;28;20114;-35
2023/03/12 00:38:58;;;;;;;2.85;1.55;;;15.00;1.00;;;;;;5072763;28;20036;-39
2023/03/12 00:41:25;;;;;;;3.55;1.52;;;15.00;1.00;;;;;;5054724;28;20102;-39
2023/03/12 00:43:52;;;;;;;1.80;1.20;;;15.00;1.00;;;;;;5071934;28;20048;-39
2023/03/12 00:46:19;;;;;;;2.70;1.63;;;14.90;1.00;;;;;;5072571;28;20459;-39
2023/03/12 00:48:46;;;;;;;3.45;1.90;;;14.90;1.00;;;;;;5054665;28;20083;-39
2023/03/12 00:51:14;;;;;;;2.92;1.70;;;14.90;1.00;;;;;;5054499;28;20063;-39
2023/03/12 00:53:41;;;;;;;4.22;1.83;;;14.90;1.00;;;;;;5071805;28;20049;-39
2023/03/12 00:56:07;;;;;;;2.03;1.40;;;14.90;1.00;;;;;;5054508;28;20044;-39
2023/03/12 00:58:35;;;;;;;1.80;1.35;;;14.80;1.00;;;;;;5054634;28;20049;-39
2023/03/12 01:01:02;;;;;;;3.67;1.88;;;14.80;1.00;;;;;;5072218;28;20492;-39
2023/03/12 01:03:28;;;;;;;4.20;1.60;;;14.80;1.00;;;;;;5071797;28;20032;-39
2023/03/12 01:05:55;;;;;;;3.78;1.30;;;14.70;1.00;;;;;;5054366;28;20598;-39
2023/03/12 01:08:23;;;;;;;3.47;2.03;;;14.70;1.00;;;;;;5072042;28;20060;-39
2023/03/12 01:10:50;;;;;;;1.80;1.35;;;14.70;1.00;;;;;;5054487;28;20049;-39
2023/03/12 01:13:17;;;;;;;2.30;1.40;;;14.70;1.00;;;;;;5053535;28;20064;-39
2023/03/12 01:15:44;;;;;;;3.20;1.40;;;14.80;1.00;;;;;;5054328;28;20139;-39
2023/03/12 01:18:11;;;;;;;2.15;1.30;;;14.90;1.00;;;;;;5054156;28;20040;-39
2023/03/12 01:20:39;;;;;;;4.65;1.88;;;14.90;1.00;;;;;;5054323;28;20052;-39
2023/03/12 01:23:07;;;;;;;2.53;1.20;;;15.00;1.00;;;;;;5053242;28;20044;-39
2023/03/12 01:25:35;;;;;;;2.42;1.40;;;15.10;1.00;;;;;;5054028;28;20051;-39
2023/03/12 01:28:03;;;;;;;2.65;1.35;;;15.20;1.00;;;;;;5054045;28;20054;-39
2023/03/12 01:30:30;;;;;;;3.03;1.65;;;15.30;1.00;;;;;;5053991;28;20135;-39
2023/03/12 01:32:57;;;;;;;4.53;1.52;;;15.40;1.00;;;;;;5053200;28;20048;-39
2023/03/12 01:35:24;;;;;;;2.33;1.38;;;15.40;1.00;;;;;;5071924;28;20044;-39
2023/03/12 01:37:51;;;;;;;2.13;1.25;;;15.50;1.00;;;;;;5053692;28;20114;-39
2023/03/12 01:40:20;;;;;;;4.10;1.70;;;15.60;1.00;;;;;;5071920;28;20047;-38
2023/03/12 01:42:56;;;;;;;2.20;1.38;;;15.70;1.00;;;;;;5053018;28;20484;-39
2023/03/12 01:45:54;;;;;;;4.60;1.75;;;15.80;1.00;;;;;;5053872;28;20047;-39
2023/03/12 01:48:22;;;;;;;2.83;1.88;;;15.90;1.00;;;;;;5053930;28;20040;-39
2023/03/12 01:50:49;;;;;;;3.15;1.35;;;15.90;1.00;;;;;;5053720;28;20127;-39
2023/03/12 01:53:17;;;;;;;1.30;0.88;;;16.00;1.00;;;;;;5053184;28;20041;-39
2023/03/12 01:55:44;;;;;;;2.55;1.27;;;16.00;1.00;;;;;;5053771;28;20064;-39
2023/03/12 01:58:11;;;;;;;1.98;1.08;;;16.00;1.00;;;;;;5053918;28;20518;-39
2023/03/12 02:00:38;;;;;;;2.63;1.40;;;16.00;1.00;;;;;;5075670;28;20041;-39
2023/03/12 02:03:07;;;;;;;3.20;1.50;;;16.00;1.00;;;;;;5057101;28;20557;-39
2023/03/12 02:06:00;;;;;;;4.07;1.40;;;16.10;1.00;;;;;;5057768;28;20507;-39
2023/03/12 02:08:27;;;;;;;2.28;1.10;;;16.10;1.00;;;;;;5057981;28;20079;-39
2023/03/12 02:10:54;;;;;;;2.95;1.25;;;16.10;1.00;;;;;;5057628;28;20048;-39
2023/03/12 02:13:21;;;;;;;2.47;1.70;;;16.00;1.00;;;;;;5055890;28;20060;-39
2023/03/12 02:15:47;;;;;;;2.33;1.17;;;16.00;1.00;;;;;;5075629;28;20075;-39
2023/03/12 02:18:17;;;;;;;2.00;1.10;;;16.00;1.00;;;;;;5057376;28;20048;-39
2023/03/12 02:21:12;;;;;;;4.30;1.27;;;16.00;1.00;;;;;;5075326;28;20132;-39
2023/03/12 02:24:07;;;;;;;2.92;1.02;;;16.00;1.00;;;;;;5056732;28;20503;-39
2023/03/12 02:26:36;;;;;;;5.75;1.50;;;15.90;1.00;;;;;;5075418;28;20041;-39
2023/03/12 02:29:03;;;;;;;2.00;1.23;;;15.90;1.00;;;;;;5057242;28;20040;-40
2023/03/12 02:31:43;;;;;;;2.85;1.20;;;15.90;1.00;;;;;;5057507;28;20056;-39
2023/03/12 02:34:11;;;;;;;5.10;1.25;;;15.90;1.00;;;;;;5056537;28;20105;-39
2023/03/12 02:36:38;;;;;;;4.05;0.95;;;15.80;1.00;;;;;;5056939;28;20052;-39
2023/03/12 02:39:05;;;;;;;3.28;1.27;;;15.80;1.00;;;;;;5056985;28;20373;-39
2023/03/12 02:41:37;;;;;;;2.53;1.02;;;15.70;1.00;;;;;;5057181;28;20407;-39
2023/03/12 02:44:11;;;;;;;3.20;1.40;;;15.70;1.00;;;;;;5074320;28;20041;-39
2023/03/12 02:46:41;;;;;;;2.75;1.23;;;15.70;1.00;;;;;;5056934;28;20041;-39
2023/03/12 02:49:11;;;;;;;1.73;0.98;;;15.70;1.00;;;;;;5074902;28;20044;-39
2023/03/12 02:51:39;;;;;;;4.03;1.17;;;15.60;1.00;;;;;;5057076;28;20048;-39
2023/03/12 02:54:06;;;;;;;2.83;1.52;;;15.60;1.00;;;;;;5056184;28;20472;-39
2023/03/12 02:56:34;;;;;;;1.20;0.95;;;15.50;1.00;;;;;;5056669;28;20052;-39
2023/03/12 02:59:01;;;;;;;2.15;1.10;;;15.50;1.00;;;;;;5074273;28;20044;-39
2023/03/12 03:01:32;;;;;;;2.75;1.05;;;15.50;1.00;;;;;;5056693;28;20419;-39
2023/03/12 03:04:01;;;;;;;1.52;0.85;;;15.50;1.00;;;;;;5055975;28;20041;-39
2023/03/12 03:06:28;;;;;;;1.80;1.00;;;15.40;1.00;;;;;;5074430;28;20128;-39
2023/03/12 03:08:55;;;;;;;3.08;1.55;;;15.40;1.00;;;;;;5056608;28;20044;-39
2023/03/12 03:11:23;;;;;;;2.15;1.20;;;15.40;1.00;;;;;;5055061;28;20131;-39
2023/03/12 03:13:54;;;;;;;1.77;0.77;;;15.30;1.00;;;;;;5055895;28;20040;-39
2023/03/12 03:16:21;;;;;;;5.18;1.75;;;15.30;1.00;;;;;;5056350;28;20052;-39
2023/03/12 03:18:49;;;;;;;2.83;1.42;;;15.30;1.00;;;;;;5056450;28;20062;-39
2023/03/12 03:21:17;;;;;;;3.33;1.15;;;15.20;1.00;;;;;;5056492;28;20067;-39
2023/03/12 03:23:48;;;;;;;2.88;0.85;;;15.20;1.00;;;;;;5055560;28;20064;-39
2023/03/12 03:26:18;;;;;;;3.25;1.10;;;15.20;1.00;;;;;;5074205;28;20111;-39
2023/03/12 03:28:45;;;;;;;3.05;1.35;;;15.20;1.00;;;;;;5056597;28;20082;-39
2023/03/12 03:31:13;;;;;;;1.40;0.80;;;15.10;1.00;;;;;;5056255;28;20059;-39
2023/03/12 03:33:41;;;;;;;2.65;1.17;;;15.10;1.00;;;;;;5073387;28;20067;-39
2023/03/12 03:36:10;;;;;;;2.80;0.95;;;15.10;1.00;;;;;;5056180;28;20101;-38
2023/03/12 03:38:45;;;;;;;3.92;1.10;;;15.00;1.00;;;;;;5055956;28;20052;-39
2023/03/12 03:41:12;;;;;;;1.88;0.93;;;15.00;1.00;;;;;;5056028;28;20063;-39
2023/03/12 03:43:42;;;;;;;2.83;0.90;;;15.00;1.00;;;;;;5055223;28;20037;-39
2023/03/12 03:46:11;;;;;;;2.65;1.33;;;15.00;1.00;;;;;;5056000;28;20048;-39
2023/03/12 03:48:41;;;;;;;1.48;1.15;;;14.90;1.00;;;;;;5055855;28;20135;-39
2023/03/12 03:51:10;;;;;;;2.17;0.90;;;14.90;1.00;;;;;;5055735;28;20052;-39
2023/03/12 03:53:41;;;;;;;5.15;0.90;;;14.90;1.00;;;;;;5055102;28;20067;-39
2023/03/12 03:56:11;;;;;;;1.48;0.80;;;14.90;1.00;;;;;;5073723;28;20119;-39
2023/03/12 03:58:41;;;;;;;1.98;0.80;;;14.80;1.00;;;;;;5073648;28;20459;-39
2023/03/12 04:01:08;;;;;;;1.77;0.93;;;14.80;1.00;;;;;;5055525;28;20114;-38
2023/03/12 04:03:35;;;;;;;2.50;0.98;;;14.80;1.00;;;;;;5072634;28;20381;-39
2023/03/12 04:06:05;;;;;;;2.70;1.42;;;14.80;1.00;;;;;;5055514;28;20526;-45
2023/03/12 04:08:35;;;;;;;1.33;0.75;;;14.70;1.00;;;;;;5055355;28;20066;-38
2023/03/12 04:11:10;;;;;;;2.40;1.00;;;14.70;1.00;;;;;;5055649;28;20044;-39
2023/03/12 04:13:37;;;;;;;1.83;1.02;;;14.70;1.00;;;;;;5072622;28;20114;-39
2023/03/12 04:16:05;;;;;;;2.65;1.15;;;14.80;1.00;;;;;;5055195;28;20040;-39
2023/03/12 04:18:34;;;;;;;1.85;1.02;;;14.80;1.00;;;;;;5055128;28;20045;-39
2023/03/12 04:21:03;;;;;;;2.08;1.10;;;14.90;1.00;;;;;;5054692;28;20040;-39
2023/03/12 04:23:30;;;;;;;5.32;1.10;;;15.00;1.00;;;;;;5054469;28;20045;-39
2023/03/12 04:25:57;;;;;;;1.80;0.85;;;15.00;1.00;;;;;;5054946;28;20131;-39
2023/03/12 04:28:24;;;;;;;2.13;1.00;;;15.10;1.00;;;;;;5054971;28;20079;-39
2023/03/12 04:30:58;;;;;;;4.30;1.13;;;15.20;1.00;;;;;;5054969;28;20056;-39
2023/03/12 04:33:31;;;;;;;2.00;0.93;;;15.30;1.00;;;;;;5054251;28;20048;-39
2023/03/12 04:35:58;;;;;;;3.22;1.30;;;15.40;1.00;;;;;;5055066;28;20067;-39
2023/03/12 04:38:26;;;;;;;3.17;1.13;;;15.50;1.00;;;;;;5054970;28;20397;-39
2023/03/12 04:41:06;;;;;;;1.45;0.75;;;15.60;1.00;;;;;;5054802;28;20046;-40
2023/03/12 04:43:35;;;;;;;2.08;1.25;;;15.60;1.00;;;;;;5054017;28;20612;-39
2023/03/12 04:46:03;;;;;;;4.15;0.90;;;15.70;1.00;;;;;;5054878;28;20037;-39
2023/03/12 04:48:32;;;;;;;3.38;1.20;;;15.80;1.00;;;;;;5072593;28;20036;-39
2023/03/12 04:51:00;;;;;;;2.85;0.88;;;15.80;1.00;;;;;;5072563;28;20040;-39
2023/03/12 04:53:28;;;;;;;3.13;1.20;;;15.80;1.00;;;;;;5053910;28;20521;-39
2023/03/12 04:55:55;;;;;;;2.42;0.88;;;15.90;1.00;;;;;;5054589;28;20044;-39
2023/03/12 04:58:22;;;;;;;1.30;0.60;;;15.90;1.00;;;;;;5054619;28;20052;-39
2023/03/12 05:00:49;;;;;;;3.47;1.42;;;15.90;1.00;;;;;;5072388;28;20503;-39
2023/03/12 05:03:17;;;;;;;1.85;1.08;;;15.90;1.00;;;;;;5053666;28;20052;-39
2023/03/12 05:05:45;;;;;;;2.55;1.42;;;15.90;1.00;;;;;;5054382;28;20044;-39
2023/03/12 05:08:12;;;;;;;1.80;0.93;;;15.90;1.00;;;;;;5054130;28;20043;-39
2023/03/12 05:10:39;;;;;;;2.65;1.00;;;15.90;1.00;;;;;;5054324;28;20060;-38
2023/03/12 05:13:17;;;;;;;0.93;0.57;;;15.90;1.00;;;;;;5053680;28;20074;-38
2023/03/12 05:15:47;;;;;;;2.17;1.10;;;15.90;1.00;;;;;;5054298;28;20466;-38
2023/03/12 05:18:14;;;;;;;2.42;1.05;;;15.90;1.00;;;;;;5054135;28;20118;-38
2023/03/12 05:20:42;;;;;;;3.90;1.17;;;15.80;1.00;;;;;;5054160;28;20047;-38
2023/03/12 05:23:10;;;;;;;2.40;1.25;;;15.80;1.00;;;;;;5071421;28;20032;-38
2023/03/12 05:25:39;;;;;;;1.75;0.90;;;15.80;1.00;;;;;;5054081;28;20403;-39
2023/03/12 05:28:06;;;;;;;1.42;1.00;;;15.80;1.00;;;;;;5053897;28;20037;-38
2023/03/12 05:30:34;;;;;;;2.28;1.02;;;15.70;1.00;;;;;;5053972;28;20158;-38
2023/03/12 05:33:01;;;;;;;3.13;0.93;;;15.70;1.00;;;;;;5052490;28;20048;-38
2023/03/12 05:35:29;;;;;;;5.97;1.13;;;15.70;1.00;;;;;;5053414;28;20139;-38
2023/03/12 05:37:56;;;;;;;3.05;1.00;;;15.70;1.00;;;;;;5034692;28;20075;-39
2023/03/12 05:40:22;;;;;;;3.28;0.90;;;15.70;1.00;;;;;;5033894;28;20472;-38
2023/03/12 05:42:49;;;;;;;3.53;1.10;;;15.60;1.00;;;;;;5033293;28;20041;-38
2023/03/12 05:45:18;;;;;;;2.85;1.10;;;15.60;1.00;;;;;;5033887;28;20044;-39
2023/03/12 05:47:49;;;;;;;1.60;1.00;;;15.50;1.00;;;;;;5033893;28;20053;-38
2023/03/12 05:50:16;;;;;;;3.05;1.15;;;15.50;1.00;;;;;;5033974;28;20049;-38
2023/03/12 05:52:43;;;;;;;2.95;0.88;;;15.50;1.00;;;;;;5033255;28;20044;-38
2023/03/12 05:55:10;;;;;;;2.20;0.90;;;15.40;1.00;;;;;;5033790;28;20506;-38
2023/03/12 05:57:37;;;;;;;2.47;1.20;;;15.40;1.00;;;;;;5051699;28;20055;-39
2023/03/12 06:00:05;;;;;;;2.03;0.95;;;15.40;1.00;;;;;;5051603;28;20122;-38
2023/03/12 06:02:38;;;;;;;2.20;0.95;;;15.30;1.00;;;;;;5050895;28;20103;-39
2023/03/12 06:05:08;;;;;;;2.45;1.40;;;15.30;1.00;;;;;;5033768;28;20045;-38
2023/03/12 06:07:35;;;;;;;2.33;0.88;;;15.30;1.00;;;;;;5051504;28;20044;-38
2023/03/12 06:10:02;;;;;;;2.80;1.77;;;15.20;1.00;;;;;;5033951;28;20060;-38
2023/03/12 06:12:29;;;;;;;3.40;0.73;;;15.20;1.00;;;;;;5033348;28;20049;-38
2023/03/12 06:14:56;;;;;;;2.95;1.45;;;15.20;1.00;;;;;;5033142;28;20512;-39
2023/03/12 06:17:23;;;;;;;2.25;0.88;;;15.20;1.00;;;;;;5033507;28;20562;-38
2023/03/12 06:19:51;;;;;;;3.53;0.82;;;15.10;1.00;;;;;;5051334;28;20040;-38
2023/03/12 06:22:23;;;;;;;3.72;1.08;;;15.10;1.00;;;;;;5033243;28;20043;-38
2023/03/12 06:24:50;;;;;;;3.83;1.20;;;15.10;1.00;;;;;;5032301;28;20045;-39
2023/03/12 06:27:17;;;;;;;2.42;0.85;;;15.00;1.00;;;;;;5021534;28;20068;-38
2023/03/12 06:29:46;;;;;;;3.08;1.35;;;15.00;1.00;;;;;;5034310;28;20634;-38
2023/03/12 06:32:13;;;;;;;2.28;0.93;;;15.00;1.00;;;;;;5037450;28;20067;-38
2023/03/12 06:34:39;;;;;;;2.33;1.05;;;15.00;1.00;;;;;;5034126;28;20560;-38
2023/03/12 06:37:06;;;;;;;4.53;1.48;;;14.90;1.00;;;;;;5051262;22;20751;-37
2023/03/12 06:39:33;;;;;;;2.67;0.90;;;14.90;1.00;;;;;;5070836;28;20069;-37
2023/03/12 06:42:00;;;;;;;3.20;1.30;;;14.90;1.00;;;;;;5086170;28;20040;-37
2023/03/12 06:44:27;;;;;;;3.15;0.93;;;14.80;1.00;;;;;;5084245;28;20036;-38
2023/03/12 06:46:53;;;;;;;1.70;0.85;;;14.80;1.00;;;;;;5083729;28;20040;-37
2023/03/12 06:49:21;;;;;;;2.13;1.13;;;14.90;1.00;;;;;;5095058;28;20102;-37
2023/03/12 06:51:47;;;;;;;2.83;1.00;;;14.90;1.00;;;;;;5094751;28;20105;-37
2023/03/12 06:54:15;;;;;;;4.10;1.73;;;14.90;1.00;;;;;;5093998;28;20060;-37
2023/03/12 06:56:41;;;;;;;1.77;0.88;;;15.00;1.00;;;;;;5094253;28;20051;-37
2023/03/12 06:59:08;;;;;;;3.28;0.52;;;15.10;1.00;;;;;;5093682;28;20085;-37
2023/03/12 07:01:35;;;;;;;3.60;1.02;;;15.10;1.00;;;;;;5094179;28;20036;-37
2023/03/12 07:04:02;;;;;;;3.90;1.23;;;15.20;1.00;;;;;;5093310;28;20048;-37
2023/03/12 07:06:29;;;;;;;2.75;1.25;;;15.30;1.00;;;;;;5074497;28;20512;-37
2023/03/12 07:08:56;;;;;;;7.35;1.23;;;15.40;1.00;;;;;;5093979;28;20069;-37
2023/03/12 07:11:22;;;;;;;3.88;1.00;;;15.50;1.00;;;;;;5094694;28;20040;-37
2023/03/12 07:13:50;;;;;;;4.68;1.15;;;15.60;1.00;;;;;;5093837;28;20048;-37
2023/03/12 07:16:17;;;;;;;3.35;0.98;;;15.70;1.00;;;;;;5094310;28;20535;-37
2023/03/12 07:18:44;;;;;;;3.10;1.10;;;15.80;1.00;;;;;;5094512;28;20105;-37
2023/03/12 07:21:11;;;;;;;1.40;0.82;;;15.90;1.00;;;;;;5085814;28;20047;-37
2023/03/12 07:23:38;;;;;;;3.60;1.27;;;15.90;1.00;;;;;;5092553;28;20040;-36
2023/03/12 07:26:05;;;;;;;7.25;1.15;;;16.00;1.00;;;;;;5094345;28;20353;-37
2023/03/12 07:28:32;;;;;;;3.25;0.63;;;16.10;1.00;;;;;;5093065;28;20403;-37
2023/03/12 07:31:00;;;;;;;6.38;1.38;;;16.20;1.00;;;;;;5094440;28;20044;-37
2023/03/12 07:33:27;;;;;;;3.60;0.80;;;16.30;1.00;;;;;;5093688;28;20044;-36
2023/03/12 07:35:54;;;;;;;4.10;1.10;;;16.30;1.00;;;;;;5094261;28;20123;-36
2023/03/12 07:38:21;;;;;;;2.13;0.93;;;16.30;1.00;;;;;;5094030;28;20526;-36
2023/03/12 07:40:55;;;;;;;3.50;1.02;;;16.40;1.00;;;;;;5094047;28;20502;-36
2023/03/12 07:43:23;;;;;;;2.58;0.82;;;16.40;1.00;;;;;;5090676;28;20044;-36
2023/03/12 07:45:53;;;;;;;2.40;0.90;;;16.40;1.00;;;;;;5074022;28;20479;-36
2023/03/12 07:48:20;;;;;;;3.05;0.70;;;16.40;1.00;;;;;;5090628;28;20123;-36
2023/03/12 07:50:47;;;;;;;4.47;1.30;;;16.40;1.00;;;;;;5093930;28;20044;-36
2023/03/12 07:53:14;;;;;;;5.00;1.13;;;16.40;1.00;;;;;;5093155;28;20040;-36
2023/03/12 07:55:44;;;;;;;5.60;1.50;;;16.40;1.00;;;;;;5091180;28;20044;-36
2023/03/12 07:58:12;;;;;;;1.75;0.80;;;16.40;1.00;;;;;;5090224;28;20051;-36
2023/03/12 08:00:39;;;;;;;3.22;1.38;;;16.40;1.00;;;;;;5085248;28;20036;-36
2023/03/12 08:03:06;;;;;;;5.05;1.30;;;16.40;1.00;;;;;;5092961;28;20101;-36
2023/03/12 08:05:33;;;;;;;10.30;2.00;;;16.40;1.00;;;;;;5093647;28;20522;-36
2023/03/12 08:08:00;;;;;;;9.10;1.30;;;16.30;1.00;;;;;;5093457;28;20491;-36
2023/03/12 08:10:27;;;;;;;2.33;1.15;;;16.30;1.00;;;;;;5094032;28;20044;-35
2023/03/12 08:12:53;;;;;;;3.97;1.20;;;16.30;1.00;;;;;;5092581;28;20040;-37
2023/03/12 08:15:20;;;;;;;7.22;1.50;;;16.20;1.00;;;;;;5093568;28;20380;-36
2023/03/12 08:17:47;;;;;;;5.55;1.40;;;16.20;1.00;;;;;;5093293;28;20040;-36
2023/03/12 08:20:14;;;;;;;7.53;1.45;;;16.10;1.00;;;;;;5093376;28;20113;-37
2023/03/12 08:22:41;;;;;;;3.83;1.95;;;16.10;1.00;;;;;;5092564;28;20043;-36
2023/03/12 08:25:09;;;;;;;3.25;1.63;;;16.10;1.00;;;;;;5093119;28;20119;-37
2023/03/12 08:27:36;;;;;;;2.78;1.60;;;16.00;1.00;;;;;;5093089;28;20040;-36
2023/03/12 08:30:05;;;;;;;3.58;1.83;;;16.00;1.00;;;;;;5093252;28;20111;-36
2023/03/12 08:32:33;;;;;;;2.88;1.50;;;16.00;1.00;;;;;;5092697;28;20048;-36
2023/03/12 08:35:00;;;;;;;2.95;1.63;;;15.90;1.00;;;;;;5092005;28;20052;-36
2023/03/12 08:37:26;;;;;;;2.80;1.50;;;15.90;1.00;;;;;;5091520;28;20110;-36
2023/03/12 08:39:53;;;;;;;4.93;1.75;;;15.90;1.00;;;;;;5091803;28;20036;-37
2023/03/12 08:42:20;;;;;;;2.95;1.85;;;15.80;1.00;;;;;;5092147;28;20495;-37
2023/03/12 08:44:47;;;;;;;7.68;1.92;;;15.80;1.00;;;;;;5078886;28;20036;-38
2023/03/12 08:47:14;;;;;;;5.63;1.85;;;15.70;1.00;;;;;;5091284;28;20043;-38
2023/03/12 08:49:41;;;;;;;4.00;1.70;;;15.70;1.00;;;;;;5100579;28;20038;-37
2023/03/12 08:52:07;;;;;;;3.83;1.50;;;15.70;1.00;;;;;;5096217;28;20036;-37
2023/03/12 08:54:34;;;;;;;3.67;1.75;;;15.70;1.00;;;;;;5080098;28;20054;-37
2023/03/12 08:57:01;;;;;;;2.42;1.67;;;15.60;1.00;;;;;;5096245;28;20495;-37
2023/03/12 08:59:28;;;;;;;2.88;2.00;;;15.60;1.00;;;;;;5084794;28;20036;-38
2023/03/12 09:01:55;;;;;;;5.32;1.90;;;15.60;1.00;;;;;;5092285;28;20078;-38
2023/03/12 09:04:36;;;;;;;6.13;1.90;;;15.70;1.00;;;;;;5091902;28;20514;-36
2023/03/12 09:07:10;;;;;;;3.72;2.05;;;15.70;1.00;;;;;;5089729;28;20567;-36
2023/03/12 09:09:48;;;;;;;4.10;1.67;;;15.80;1.00;;;;;;5088751;28;20036;-36
2023/03/12 09:12:22;;;;;;;3.97;1.80;;;15.90;1.00;;;;;;5091735;28;20060;-37
2023/03/12 09:14:50;;;;;;;2.17;1.50;;;16.10;1.00;;;;;;5091681;28;20036;-37
2023/03/12 09:17:30;;;;;;;5.35;2.42;;;16.40;1.00;;;;;;5071957;28;20055;-37
2023/03/12 09:19:57;;;;;;;3.13;1.52;;;16.70;1.00;;;;;;5072099;28;20127;-37
2023/03/12 09:22:23;;;;;;;2.55;1.38;;;16.90;1.00;;;;;;5075125;28;20124;-37
2023/03/12 09:24:50;;;;;;;2.20;1.48;;;17.20;1.00;;;;;;5094210;28;20118;-37
2023/03/12 09:27:17;;;;;;;4.80;1.23;;;17.50;1.00;;;;;;5112386;28;20494;-37
2023/03/12 09:29:44;;;;;;;4.40;1.35;;;17.70;1.00;;;;;;5112252;28;20036;-36
2023/03/12 09:32:26;;;;;;;8.00;2.30;;;17.90;1.00;;;;;;5112140;28;20036;-37
2023/03/12 09:34:56;;;;;;;3.38;1.38;;;18.10;1.00;;;;;;5086339;28;20036;-37
2023/03/12 09:37:26;;;;;;;2.22;1.13;;;18.30;1.00;;;;;;5063467;28;20032;-38
2023/03/12 09:39:53;;;;;;;5.15;0.85;;;18.40;1.00;;;;;;5072015;28;20397;-38
2023/03/12 09:42:24;;;;;;;4.72;1.10;;;18.60;1.00;;;;;;5070979;28;20058;-38
2023/03/12 09:44:54;;;;;;;7.18;1.20;;;18.70;1.00;;;;;;5071353;28;20055;-38
2023/03/12 09:47:30;;;;;;;2.42;1.13;;;18.70;1.00;;;;;;5071743;28;20464;-37
2023/03/12 09:50:28;;;;;;;3.78;1.40;;;18.90;1.00;;;;;;5071416;28;20381;-38
2023/03/12 09:53:03;;;;;;;3.55;1.20;;;18.90;1.00;;;;;;5066105;28;20171;-38
2023/03/12 09:55:39;;;;;;;4.35;1.65;;;18.90;1.00;;;;;;5071725;28;20049;-38
2023/03/12 09:58:23;;;;;;;3.25;1.30;;;18.90;1.00;;;;;;5071172;28;20094;-38
2023/03/12 10:01:13;;;;;;;4.15;1.40;;;18.90;1.00;;;;;;5071455;28;20369;-38
2023/03/12 10:03:52;;;;;;;9.25;1.50;;;19.00;1.00;;;;;;5071019;28;20045;-38
2023/03/12 10:06:34;;;;;;;7.93;0.93;;;19.10;1.00;;;;;;5071619;28;20308;-38
2023/03/12 10:09:36;;;;;;;2.13;0.73;;;19.10;1.00;;;;;;5071626;28;20056;-37
2023/03/12 10:12:24;;;;;;;3.42;1.25;;;19.20;1.00;;;;;;5071266;28;20040;-37
2023/03/12 10:15:35;;;;;;;2.95;1.10;;;19.30;1.00;;;;;;5069552;28;20454;-37
2023/03/12 10:18:17;;;;;;;4.65;1.10;;;19.50;1.00;;;;;;4988838;28;20045;-37
2023/03/12 10:20:55;;;;;;;2.13;0.93;;;19.60;1.00;;;;;;5068222;28;20048;-37
2023/03/12 10:23:39;;;;;;;4.75;1.00;;;19.70;1.00;;;;;;5074367;28;20411;-37
2023/03/12 10:26:12;;;;;;;2.28;0.88;;;19.80;1.00;;;;;;5075039;28;20055;-38
2023/03/12 10:28:43;;;;;;;2.30;0.95;;;19.90;1.00;;;;;;5075316;28;20037;-38
2023/03/12 10:31:48;;;;;;;4.93;1.52;;;20.00;1.00;;;;;;5075058;28;20048;-38
2023/03/12 10:34:31;;;;;;;8.20;1.60;;;20.20;1.00;;;;;;5077821;28;20488;-38
2023/03/12 10:37:08;;;;;;;3.85;0.82;;;20.20;1.00;;;;;;5073579;28;20036;-38
2023/03/12 10:39:35;;;;;;;4.43;1.17;;;20.20;1.00;;;;;;5068134;28;20041;-38
2023/03/12 10:42:22;;;;;;;2.22;1.10;;;20.30;1.00;;;;;;5079929;28;20032;-38
2023/03/12 10:45:12;;;;;;;5.43;1.40;;;20.40;1.00;;;;;;5094806;28;20079;-37
2023/03/12 10:47:41;;;;;;;3.40;1.33;;;20.40;1.00;;;;;;5084998;28;20151;-37
2023/03/12 10:50:19;;;;;;;3.55;0.98;;;20.40;1.00;;;;;;5094665;28;20081;-38
2023/03/12 10:52:48;;;;;;;1.92;0.68;;;20.40;1.00;;;;;;5094280;28;20054;-38
2023/03/12 10:55:20;;;;;;;4.05;0.90;;;20.40;1.00;;;;;;5091571;28;20090;-38
2023/03/12 10:57:48;;;;;;;5.15;1.35;;;20.40;1.00;;;;;;5071246;28;20311;-38
2023/03/12 11:00:24;;;;;;;3.83;1.00;;;20.40;1.00;;;;;;5074475;28;20041;-38
2023/03/12 11:03:02;;;;;;;3.63;1.65;;;20.40;1.00;;;;;;5067692;28;20037;-38
2023/03/12 11:05:51;;;;;;;3.92;1.27;;;20.40;1.00;;;;;;5067390;28;20040;-38
2023/03/12 11:08:26;;;;;;;5.82;1.30;;;20.40;1.00;;;;;;5092900;28;20035;-37
2023/03/12 11:10:54;;;;;;;4.30;1.30;;;20.40;1.00;;;;;;5094684;28;20491;-37
2023/03/12 11:13:28;;;;;;;2.88;1.00;;;20.30;1.00;;;;;;5075468;28;20045;-38
2023/03/12 11:16:15;;;;;;;5.32;1.40;;;20.30;1.00;;;;;;5062378;28;20558;-38
2023/03/12 11:19:00;;;;;;;4.95;1.10;;;20.30;1.00;;;;;;5067805;28;20044;-38
2023/03/12 11:21:28;;;;;;;4.95;1.15;;;20.20;1.00;;;;;;5085657;28;20120;-37
2023/03/12 11:23:57;;;;;;;7.57;1.63;;;20.20;1.00;;;;;;5072106;28;20067;-37
2023/03/12 11:26:30;;;;;;;4.75;1.13;;;20.20;1.00;;;;;;5075438;28;20041;-37
2023/03/12 11:29:30;;;;;;;5.32;1.48;;;20.10;1.00;;;;;;5073713;28;20032;-37
2023/03/12 11:32:15;;;;;;;6.82;1.00;;;20.10;1.00;;;;;;5070468;28;20068;-36
2023/03/12 11:34:48;;;;;;;4.93;1.52;;;20.00;1.00;;;;;;5062616;28;20040;-37
2023/03/12 11:37:32;;;;;;;4.38;1.17;;;20.00;1.00;;;;;;5081912;28;20094;-37
2023/03/12 11:40:32;;;;;;;2.75;1.17;;;20.00;1.00;;;;;;5073986;28;20045;-38
2023/03/12 11:43:26;;;;;;;5.10;1.30;;;19.90;1.00;;;;;;5072535;28;20090;-38
2023/03/12 11:46:24;;;;;;;4.03;1.48;;;19.80;1.00;;;;;;5071246;28;20032;-38
2023/03/12 11:49:09;;;;;;;9.93;1.10;;;19.80;1.00;;;;;;5069516;28;20124;-38
2023/03/12 11:52:10;;;;;;;13.45;2.20;;;19.70;1.00;;;;;;5066355;28;20068;-38
2023/03/12 11:55:06;;;;;;;8.02;1.95;;;19.70;1.00;;;;;;5073189;28;20111;-36
2023/03/12 11:57:53;;;;;;;9.82;2.90;;;19.60;1.00;;;;;;5073369;28;20110;-37
2023/03/12 12:00:43;;;;;;;11.75;3.05;;;19.50;1.00;;;;;;5073552;28;20051;-37
2023/03/12 12:03:28;;;;;;;;;;;19.50;1.00;;;;;;5073319;28;20047;-37
2023/03/12 12:06:08;;;;;;;9.68;2.35;;;19.40;1.00;;;;;;5072984;28;19920;-38
2023/03/12 12:09:01;;;;;;;9.80;2.10;;;19.30;1.00;;;;;;5054249;28;20040;-38
2023/03/12 12:11:51;;;;;;;11.02;2.92;;;19.30;1.00;;;;;;5073011;28;20499;-37
2023/03/12 12:14:38;;;;;;;22.00;3.92;;;19.20;1.00;;;;;;5092551;28;20395;-36
2023/03/12 12:17:24;;;;;;;20.92;3.22;;;19.20;1.00;;;;;;5085051;28;20076;-36
2023/03/12 12:20:15;;;;;;;12.15;3.17;;;19.10;1.00;;;;;;5092536;28;20064;-36
2023/03/12 12:23:11;;;;;;;12.35;2.70;;;19.10;1.00;;;;;;5088235;28;20044;-36
2023/03/12 12:25:54;;;;;;;13.27;2.85;;;19.00;1.00;;;;;;5088699;28;20433;-36
2023/03/12 12:28:29;;;;;;;10.80;3.53;;;18.90;1.00;;;;;;5078496;28;20041;-36
2023/03/12 12:31:29;;;;;;;9.35;2.65;;;18.90;1.00;;;;;;5088440;28;20036;-36
2023/03/12 12:34:34;;;;;;;9.32;2.95;;;18.80;1.00;;;;;;5072139;28;20515;-36
2023/03/12 12:37:16;;;;;;;12.98;3.50;;;18.70;1.00;;;;;;5084186;22;20044;-39
2023/03/12 12:39:51;;;;;;;12.77;3.60;;;18.70;1.00;;;;;;5066284;28;20484;-39
2023/03/12 12:42:24;;;;;;;13.02;3.05;;;18.70;1.00;;;;;;5070539;28;20083;-38
2023/03/12 12:44:52;;;;;;;;;;;18.60;1.00;;;;;;5072869;28;20041;-38
2023/03/12 12:47:45;;;;;;;11.65;2.03;;;18.50;1.00;;;;;;5068171;28;19959;-39
2023/03/12 12:50:25;;;;;;;8.95;3.15;;;18.50;1.00;;;;;;5052320;28;20114;-39
2023/03/12 12:52:58;;;;;;;9.35;2.53;;;18.40;1.00;;;;;;5051873;28;20471;-38
2023/03/12 12:55:33;;;;;;;8.93;2.33;;;18.40;1.00;;;;;;5052541;28;20041;-38
2023/03/12 12:58:12;;;;;;;8.23;2.30;;;18.30;1.00;;;;;;5052398;28;20040;-38
2023/03/12 13:00:52;;;;;;;12.30;2.75;;;18.30;1.00;;;;;;5035331;28;20128;-38
2023/03/12 13:03:22;;;;;;;9.48;2.55;;;18.20;1.00;;;;;;5051667;28;20041;-38
2023/03/12 13:05:56;;;;;;;9.23;2.58;;;18.20;1.00;;;;;;5052173;28;20052;-38
2023/03/12 13:09:00;;;;;;;13.55;2.33;;;18.20;1.00;;;;;;5052137;28;20111;-38
2023/03/12 13:11:40;;;;;;;9.25;2.15;;;18.10;1.00;;;;;;5052270;28;20427;-39
2023/03/12 13:14:09;;;;;;;11.02;1.73;;;18.10;1.00;;;;;;5051456;28;20048;-39
2023/03/12 13:16:38;;;;;;;12.95;3.33;;;18.00;1.00;;;;;;5052059;28;20037;-39
2023/03/12 13:19:19;;;;;;;12.27;2.72;;;18.00;1.00;;;;;;5052175;28;20119;-39
2023/03/12 13:22:21;;;;;;;10.35;2.33;;;18.00;1.00;;;;;;5051942;28;20056;-38
2023/03/12 13:25:04;;;;;;;11.85;2.80;;;18.00;1.00;;;;;;5050281;28;20455;-38